Time;durP1;ratioP1;P1;durP2;ratioP2;P2;SDS_P1;SDS_P2;PMS_P1;PMS_P2;Temp;Humidity;BMP_temperature;BMP_pressure;BME280_temperature;BME280_humidity;BME280_pressure;Samples;Min_cycle;Max_cycle;Signal;HPM_P1;HPM_P2
2021/03/28 00:03:04;;;;;;;3.23;1.13;;;;;;;;;;10331082;28;20083;-64
2021/03/28 00:08:15;;;;;;;5.07;0.70;;;;;;;;;;10356114;28;20040;-64
2021/03/28 00:13:12;;;;;;;5.60;2.00;;;;;;;;;;10326526;28;20545;-65
2021/03/28 00:18:19;;;;;;;6.03;1.53;;;;;;;;;;10343578;28;20044;-65
2021/03/28 00:23:23;;;;;;;9.93;2.00;;;;;;;;;;10345991;28;20024;-64
2021/03/28 00:28:39;;;;;;;4.25;1.17;;;;;;;;;;10360244;28;20036;-64
2021/03/28 00:33:37;;;;;;;3.10;1.40;;;;;;;;;;10351218;28;20406;-65
2021/03/28 00:38:38;;;;;;;5.38;2.55;;;;;;;;;;10349867;28;20032;-64
2021/03/28 00:43:58;;;;;;;10.55;2.10;;;;;;;;;;10347793;28;20184;-66
2021/03/28 00:48:56;;;;;;;5.75;2.20;;;;;;;;;;10350802;28;20037;-65
2021/03/28 00:53:55;;;;;;;7.20;1.85;;;;;;;;;;10348750;28;20086;-65
2021/03/28 00:59:01;;;;;;;7.72;1.70;;;;;;;;;;10339347;28;20607;-65
2021/03/28 01:04:33;;;;;;;3.15;1.13;;;;;;;;;;10343468;28;20028;-63
2021/03/28 01:09:31;;;;;;;;;;;;;;;;;;10349901;28;20553;-62
2021/03/28 01:14:46;;;;;;;9.55;1.83;;;;;;;;;;10357428;28;19920;-63
2021/03/28 01:20:02;;;;;;;1.58;1.00;;;;;;;;;;10346596;28;20186;-63
2021/03/28 01:25:09;;;;;;;6.38;1.85;;;;;;;;;;10366093;28;20037;-64
2021/03/28 01:30:06;;;;;;;10.35;1.88;;;;;;;;;;10362337;28;20115;-61
2021/03/28 01:35:04;;;;;;;7.77;2.03;;;;;;;;;;10357784;28;20834;-63
2021/03/28 01:40:07;;;;;;;3.60;1.30;;;;;;;;;;10355343;28;20044;-60
2021/03/28 01:45:08;;;;;;;3.20;1.65;;;;;;;;;;10351805;28;20029;-63
2021/03/28 01:50:17;;;;;;;5.53;1.73;;;;;;;;;;10350416;28;20032;-63
2021/03/28 01:55:20;;;;;;;6.28;1.48;;;;;;;;;;10362007;28;20036;-64
2021/03/28 02:00:31;;;;;;;8.45;1.90;;;;;;;;;;10356445;28;20039;-64
2021/03/28 02:05:31;;;;;;;7.65;2.28;;;;;;;;;;10346601;28;20043;-64
2021/03/28 02:10:45;;;;;;;7.72;1.77;;;;;;;;;;10365607;28;20403;-65
2021/03/28 02:15:46;;;;;;;4.40;1.17;;;;;;;;;;10351445;28;20148;-64
2021/03/28 02:20:46;;;;;;;13.70;2.05;;;;;;;;;;10359114;28;20392;-64
2021/03/28 02:25:49;;;;;;;6.03;2.22;;;;;;;;;;10365917;28;20041;-65
2021/03/28 02:31:02;;;;;;;9.98;1.98;;;;;;;;;;10357073;28;20059;-64
2021/03/28 02:36:19;;;;;;;5.00;1.42;;;;;;;;;;10371506;28;20400;-63
2021/03/28 02:41:34;;;;;;;3.25;1.42;;;;;;;;;;10360810;28;20129;-64
2021/03/28 02:46:50;;;;;;;10.48;1.90;;;;;;;;;;10337233;28;20168;-66
2021/03/28 02:52:02;;;;;;;4.13;1.67;;;;;;;;;;10353609;28;20051;-66
2021/03/28 02:57:03;;;;;;;3.97;1.38;;;;;;;;;;10358830;28;20048;-64
2021/03/28 03:02:18;;;;;;;6.53;2.10;;;;;;;;;;10371814;28;20108;-66
2021/03/28 03:07:15;;;;;;;5.57;1.67;;;;;;;;;;10375379;28;20478;-63
2021/03/28 03:12:22;;;;;;;4.13;1.63;;;;;;;;;;10371510;28;20106;-63
2021/03/28 03:17:28;;;;;;;7.97;1.70;;;;;;;;;;10363229;28;20064;-64
2021/03/28 03:22:32;;;;;;;7.30;1.80;;;;;;;;;;10358947;28;20048;-64
2021/03/28 03:27:37;;;;;;;12.98;2.10;;;;;;;;;;10357785;28;20065;-64
2021/03/28 03:32:47;;;;;;;11.10;1.45;;;;;;;;;;10361202;28;20044;-66
2021/03/28 03:38:03;;;;;;;4.32;1.48;;;;;;;;;;10348413;28;20562;-65
2021/03/28 03:43:21;;;;;;;5.60;1.67;;;;;;;;;;10365061;23;20027;-66
2021/03/28 03:48:21;;;;;;;7.73;1.50;;;;;;;;;;10320600;28;20065;-65
2021/03/28 03:53:42;;;;;;;11.77;1.98;;;;;;;;;;10303218;28;20303;-66
2021/03/28 03:58:51;;;;;;;5.05;1.73;;;;;;;;;;10285192;28;20037;-66
2021/03/28 04:04:04;;;;;;;3.97;1.40;;;;;;;;;;10287862;28;20413;-66
2021/03/28 04:09:04;;;;;;;8.13;2.35;;;;;;;;;;10282228;28;20586;-64
2021/03/28 04:14:07;;;;;;;3.20;1.27;;;;;;;;;;10276734;28;20460;-65
2021/03/28 04:19:17;;;;;;;4.80;2.13;;;;;;;;;;10276151;28;20037;-65
2021/03/28 04:24:33;;;;;;;4.55;2.00;;;;;;;;;;10308644;28;20380;-65
2021/03/28 04:29:31;;;;;;;4.28;1.95;;;;;;;;;;10331577;28;20084;-65
2021/03/28 04:34:31;;;;;;;4.70;1.50;;;;;;;;;;10317612;28;20071;-66
2021/03/28 04:39:47;;;;;;;11.55;2.42;;;;;;;;;;10292005;28;20068;-65
2021/03/28 04:45:03;;;;;;;6.40;1.95;;;;;;;;;;10321036;28;20037;-66
2021/03/28 04:50:13;;;;;;;7.00;2.72;;;;;;;;;;10319541;28;20029;-66
2021/03/28 04:55:19;;;;;;;8.50;2.47;;;;;;;;;;10313234;28;20041;-65
2021/03/28 05:00:28;;;;;;;4.88;1.98;;;;;;;;;;10320329;28;20020;-66
2021/03/28 05:05:31;;;;;;;4.43;2.38;;;;;;;;;;10310663;28;20049;-66
2021/03/28 05:10:38;;;;;;;8.90;3.20;;;;;;;;;;10327714;28;20112;-66
2021/03/28 05:15:38;;;;;;;19.75;3.03;;;;;;;;;;10323784;28;20047;-66
2021/03/28 05:20:54;;;;;;;7.95;2.83;;;;;;;;;;10309826;28;20095;-66
2021/03/28 05:26:03;;;;;;;9.20;2.80;;;;;;;;;;10313932;28;20033;-66
2021/03/28 05:31:33;;;;;;;10.23;3.22;;;;;;;;;;10320114;28;20036;-64
2021/03/28 05:36:39;;;;;;;10.30;2.78;;;;;;;;;;10282959;28;20036;-66
2021/03/28 05:41:49;;;;;;;13.23;2.80;;;;;;;;;;10319509;28;20045;-65
2021/03/28 05:47:05;;;;;;;8.32;2.45;;;;;;;;;;10314118;28;20399;-66
2021/03/28 05:52:21;;;;;;;10.48;2.90;;;;;;;;;;10323461;28;20086;-66
2021/03/28 05:57:18;;;;;;;10.95;3.20;;;;;;;;;;10304126;28;20155;-66
2021/03/28 06:02:31;;;;;;;12.00;2.90;;;;;;;;;;10321347;28;20046;-67
2021/03/28 06:07:43;;;;;;;6.88;2.40;;;;;;;;;;10322692;28;20124;-66
2021/03/28 06:12:50;;;;;;;8.40;2.22;;;;;;;;;;10317641;28;20033;-66
2021/03/28 06:17:50;;;;;;;11.68;2.88;;;;;;;;;;10323617;28;20498;-65
2021/03/28 06:23:06;;;;;;;8.48;3.53;;;;;;;;;;10291066;28;20029;-65
2021/03/28 06:28:22;;;;;;;7.90;2.60;;;;;;;;;;10320275;28;20463;-66
2021/03/28 06:33:34;;;;;;;9.18;2.95;;;;;;;;;;10320020;28;20129;-67
2021/03/28 06:38:51;;;;;;;8.98;2.88;;;;;;;;;;10298581;28;20044;-65
2021/03/28 06:43:54;;;;;;;13.68;4.05;;;;;;;;;;10317826;28;20041;-66
2021/03/28 06:49:13;;;;;;;11.38;2.70;;;;;;;;;;10326346;28;20136;-66
2021/03/28 06:54:26;;;;;;;7.72;2.97;;;;;;;;;;10324913;28;20541;-66
2021/03/28 06:59:29;;;;;;;9.63;3.40;;;;;;;;;;10318648;28;20041;-66
2021/03/28 07:04:38;;;;;;;6.20;3.13;;;;;;;;;;10311679;28;20092;-66
2021/03/28 07:09:55;;;;;;;14.88;3.63;;;;;;;;;;10316085;28;20113;-66
2021/03/28 07:15:08;;;;;;;4.65;2.13;;;;;;;;;;10315941;28;20040;-66
2021/03/28 07:20:21;;;;;;;5.47;2.13;;;;;;;;;;10293226;28;20438;-66
2021/03/28 07:25:22;;;;;;;8.63;3.78;;;;;;;;;;10309222;28;20401;-66
2021/03/28 07:30:37;;;;;;;12.98;3.33;;;;;;;;;;10318709;28;20022;-66
2021/03/28 07:35:52;;;;;;;8.18;2.80;;;;;;;;;;10328445;28;20040;-66
2021/03/28 07:41:10;;;;;;;12.30;3.30;;;;;;;;;;10298173;28;20875;-66
2021/03/28 07:46:07;;;;;;;10.02;3.25;;;;;;;;;;10292855;28;20522;-67
2021/03/28 07:51:13;;;;;;;8.27;2.97;;;;;;;;;;10304624;28;20045;-65
2021/03/28 07:56:14;;;;;;;7.63;2.65;;;;;;;;;;10321858;28;20410;-65
2021/03/28 08:01:24;;;;;;;11.27;3.13;;;;;;;;;;10316227;28;20032;-65
2021/03/28 08:06:31;;;;;;;11.90;2.58;;;;;;;;;;10309040;28;20512;-66
2021/03/28 08:11:28;;;;;;;5.93;3.05;;;;;;;;;;10300988;28;20414;-66
2021/03/28 08:16:44;;;;;;;67.47;38.57;;;;;;;;;;10308610;28;20045;-63
2021/03/28 08:22:01;;;;;;;13.27;5.97;;;;;;;;;;10315072;28;20033;-65
2021/03/28 08:26:58;;;;;;;12.63;4.28;;;;;;;;;;10314515;28;20033;-65
2021/03/28 08:32:16;;;;;;;9.33;3.63;;;;;;;;;;10319294;28;20040;-65
2021/03/28 08:37:20;;;;;;;7.70;3.88;;;;;;;;;;10328240;28;20124;-62
2021/03/28 08:42:36;;;;;;;12.75;3.95;;;;;;;;;;10313756;28;20475;-64
2021/03/28 08:47:42;;;;;;;5.63;3.40;;;;;;;;;;10306677;28;20403;-65
2021/03/28 08:52:55;;;;;;;7.70;2.55;;;;;;;;;;10323759;28;20451;-66
2021/03/28 08:58:01;;;;;;;8.40;2.40;;;;;;;;;;10271206;28;20036;-66
2021/03/28 09:03:11;;;;;;;11.90;2.22;;;;;;;;;;10279466;28;20131;-65
2021/03/28 09:08:08;;;;;;;5.82;2.40;;;;;;;;;;10264902;28;20037;-66
2021/03/28 09:13:12;;;;;;;10.03;3.07;;;;;;;;;;10260573;28;20037;-65
2021/03/28 09:18:15;;;;;;;5.50;1.90;;;;;;;;;;10257552;28;20408;-65
2021/03/28 09:23:24;;;;;;;5.75;1.83;;;;;;;;;;10271551;28;20500;-66
2021/03/28 09:28:37;;;;;;;5.07;1.48;;;;;;;;;;10272382;28;20153;-65
2021/03/28 09:33:34;;;;;;;3.53;1.40;;;;;;;;;;10270240;28;20330;-65
2021/03/28 09:38:31;;;;;;;7.40;2.27;;;;;;;;;;10272532;28;20496;-65
2021/03/28 09:43:29;;;;;;;6.37;1.53;;;;;;;;;;10259015;28;20046;-64
2021/03/28 09:48:26;;;;;;;6.07;1.87;;;;;;;;;;10269293;28;20042;-65
2021/03/28 09:53:42;;;;;;;4.67;1.50;;;;;;;;;;10273031;28;20487;-66
2021/03/28 09:58:49;;;;;;;6.00;1.65;;;;;;;;;;10293793;28;20735;-66
2021/03/28 10:04:00;;;;;;;6.75;2.10;;;;;;;;;;10254449;28;20030;-65
2021/03/28 10:09:18;;;;;;;8.63;1.33;;;;;;;;;;10269962;28;20042;-66
2021/03/28 10:14:19;;;;;;;5.75;1.40;;;;;;;;;;10260088;28;20033;-66
2021/03/28 10:19:17;;;;;;;2.72;1.02;;;;;;;;;;10260690;28;20590;-66
2021/03/28 10:24:36;;;;;;;1.70;0.90;;;;;;;;;;10268404;28;20138;-66
2021/03/28 10:29:52;;;;;;;7.13;1.73;;;;;;;;;;10260391;28;20053;-66
2021/03/28 10:34:50;;;;;;;5.95;1.40;;;;;;;;;;10272021;28;20511;-65
2021/03/28 10:40:03;;;;;;;1.73;1.10;;;;;;;;;;10270030;28;20091;-64
2021/03/28 10:45:22;;;;;;;4.20;1.13;;;;;;;;;;10263928;28;20052;-67
2021/03/28 10:50:31;;;;;;;3.78;1.27;;;;;;;;;;10321395;28;20040;-66
2021/03/28 10:55:29;;;;;;;5.22;0.90;;;;;;;;;;10319452;28;20037;-65
2021/03/28 11:00:33;;;;;;;1.90;1.08;;;;;;;;;;10296687;28;20090;-65
2021/03/28 11:05:42;;;;;;;4.82;1.20;;;;;;;;;;10300888;28;20064;-66
2021/03/28 11:10:45;;;;;;;5.28;1.83;;;;;;;;;;10276686;28;20070;-66
2021/03/28 11:16:09;;;;;;;6.93;3.00;;;;;;;;;;10277498;28;20044;-66
2021/03/28 11:21:07;;;;;;;4.45;2.17;;;;;;;;;;10255203;28;20041;-65
2021/03/28 11:26:16;;;;;;;6.97;2.40;;;;;;;;;;10263698;28;20034;-66
2021/03/28 11:31:29;;;;;;;4.10;1.80;;;;;;;;;;10262339;28;20598;-66
2021/03/28 11:36:29;;;;;;;5.72;1.70;;;;;;;;;;10271309;28;20038;-66
2021/03/28 11:41:32;;;;;;;4.53;1.35;;;;;;;;;;10273863;28;20049;-66
2021/03/28 11:46:33;;;;;;;6.82;1.15;;;;;;;;;;10276467;28;20049;-67
2021/03/28 11:51:53;;;;;;;7.22;2.00;;;;;;;;;;10290317;28;20033;-66
2021/03/28 11:56:52;;;;;;;2.38;1.23;;;;;;;;;;10273110;28;20041;-66
2021/03/28 12:01:55;;;;;;;7.20;1.58;;;;;;;;;;10283221;28;20526;-66
2021/03/28 12:07:11;;;;;;;3.75;1.15;;;;;;;;;;10277008;28;20132;-66
2021/03/28 12:12:15;;;;;;;5.22;1.50;;;;;;;;;;10277713;28;20041;-65
2021/03/28 12:17:13;;;;;;;2.80;1.10;;;;;;;;;;10267040;28;20036;-65
2021/03/28 12:22:26;;;;;;;3.03;0.98;;;;;;;;;;10284067;28;20575;-65
2021/03/28 12:27:26;;;;;;;5.35;1.38;;;;;;;;;;10269429;28;20041;-66
2021/03/28 12:32:41;;;;;;;5.70;1.33;;;;;;;;;;10276107;28;20095;-65
2021/03/28 12:37:38;;;;;;;1.95;0.80;;;;;;;;;;10263277;28;20037;-65
2021/03/28 12:42:36;;;;;;;8.20;1.20;;;;;;;;;;10282032;28;20447;-65
2021/03/28 12:47:54;;;;;;;4.20;0.97;;;;;;;;;;10255697;28;20048;-66
2021/03/28 12:53:01;;;;;;;4.90;1.25;;;;;;;;;;10254482;28;20048;-66
2021/03/28 12:58:07;;;;;;;6.47;1.83;;;;;;;;;;10244498;28;20701;-66
2021/03/28 13:03:23;;;;;;;4.55;1.40;;;;;;;;;;10257313;28;20039;-65
2021/03/28 13:08:21;;;;;;;2.70;0.82;;;;;;;;;;10277568;28;20685;-65
2021/03/28 13:13:22;;;;;;;4.83;1.20;;;;;;;;;;10267479;28;20297;-65
2021/03/28 13:18:27;;;;;;;7.00;1.25;;;;;;;;;;10257522;28;20162;-66
2021/03/28 13:23:24;;;;;;;4.68;1.45;;;;;;;;;;10275099;28;20407;-66
2021/03/28 13:28:23;;;;;;;4.27;1.33;;;;;;;;;;10271069;28;20052;-64
2021/03/28 13:33:21;;;;;;;2.03;1.13;;;;;;;;;;10254765;28;20477;-66
2021/03/28 13:38:25;;;;;;;1.67;1.33;;;;;;;;;;10257151;28;20308;-65
2021/03/28 13:43:24;;;;;;;6.07;1.25;;;;;;;;;;10266120;28;20034;-65
2021/03/28 13:48:24;;;;;;;1.67;1.30;;;;;;;;;;10264867;28;20060;-66
2021/03/28 13:53:23;;;;;;;4.90;1.10;;;;;;;;;;10274514;28;20368;-65
2021/03/28 13:58:27;;;;;;;4.65;1.40;;;;;;;;;;10247173;28;20061;-65
2021/03/28 14:03:29;;;;;;;4.70;1.35;;;;;;;;;;10277783;28;20040;-64
2021/03/28 14:08:27;;;;;;;4.15;1.48;;;;;;;;;;10253466;28;20132;-65
2021/03/28 14:13:30;;;;;;;2.42;1.20;;;;;;;;;;10281455;28;20681;-65
2021/03/28 14:18:37;;;;;;;2.53;1.27;;;;;;;;;;10268678;28;20448;-62
2021/03/28 14:23:41;;;;;;;5.38;1.42;;;;;;;;;;10266452;28;20033;-64
2021/03/28 14:28:44;;;;;;;6.97;1.52;;;;;;;;;;10277199;28;20045;-65
2021/03/28 14:34:01;;;;;;;6.45;2.00;;;;;;;;;;10284537;28;20038;-66
2021/03/28 14:38:58;;;;;;;7.18;1.40;;;;;;;;;;10281291;28;20044;-65
2021/03/28 14:44:07;;;;;;;5.63;1.80;;;;;;;;;;10269493;28;20395;-65
2021/03/28 14:49:25;;;;;;;5.15;1.50;;;;;;;;;;10272105;28;20079;-65
2021/03/28 14:54:46;;;;;;;6.47;1.52;;;;;;;;;;10257380;28;20132;-64
2021/03/28 14:59:59;;;;;;;5.70;1.58;;;;;;;;;;10263863;28;20686;-65
2021/03/28 15:05:15;;;;;;;2.28;1.42;;;;;;;;;;10289476;28;20515;-65
2021/03/28 15:10:12;;;;;;;8.20;1.90;;;;;;;;;;10318074;28;20407;-64
2021/03/28 15:15:24;;;;;;;3.87;1.43;;;;;;;;;;10331966;28;20028;-66
2021/03/28 15:20:26;;;;;;;7.20;1.80;;;;;;;;;;10318772;28;20044;-65
2021/03/28 15:25:24;;;;;;;10.27;1.95;;;;;;;;;;10328029;28;20033;-68
2021/03/28 15:30:48;;;;;;;4.28;1.25;;;;;;;;;;10292274;28;20056;-65
2021/03/28 15:36:00;;;;;;;7.80;1.85;;;;;;;;;;10271857;28;20048;-65
2021/03/28 15:41:36;;;;;;;5.15;2.00;;;;;;;;;;10243528;28;20058;-67
2021/03/28 15:46:48;;;;;;;7.03;2.78;;;;;;;;;;10126399;28;20492;-65
2021/03/28 15:52:04;;;;;;;6.55;2.10;;;;;;;;;;10216349;28;20061;-65
2021/03/28 15:57:20;;;;;;;6.63;1.58;;;;;;;;;;10266613;28;20119;-65
2021/03/28 16:02:20;;;;;;;5.38;1.65;;;;;;;;;;10266556;28;20044;-64
2021/03/28 16:07:25;;;;;;;4.35;1.77;;;;;;;;;;10287415;28;20033;-65
2021/03/28 16:12:31;;;;;;;5.78;1.67;;;;;;;;;;10317218;28;20037;-62
2021/03/28 16:17:44;;;;;;;4.72;1.52;;;;;;;;;;10318323;28;20037;-63
2021/03/28 16:23:02;;;;;;;7.20;2.83;;;;;;;;;;10314449;28;20045;-61
2021/03/28 16:28:02;;;;;;;9.63;2.90;;;;;;;;;;10279308;28;20617;-63
2021/03/28 16:32:59;;;;;;;10.88;3.33;;;;;;;;;;10291070;28;20041;-64
2021/03/28 16:38:16;;;;;;;13.43;4.60;;;;;;;;;;10299096;28;20034;-65
2021/03/28 16:43:19;;;;;;;8.93;2.38;;;;;;;;;;10313093;28;20043;-63
2021/03/28 16:48:27;;;;;;;7.32;2.13;;;;;;;;;;10305718;28;20037;-65
2021/03/28 16:53:44;;;;;;;7.03;1.87;;;;;;;;;;10324900;28;20040;-62
2021/03/28 16:58:50;;;;;;;7.15;1.92;;;;;;;;;;10303738;28;20037;-63
2021/03/28 17:04:09;;;;;;;3.08;1.70;;;;;;;;;;10303457;28;20607;-64
2021/03/28 17:09:06;;;;;;;;;;;;;;;;;;10298840;28;20049;-64
2021/03/28 17:14:23;;;;;;;4.67;2.17;;;;;;;;;;10312536;28;19912;-63
2021/03/28 17:19:25;;;;;;;3.13;1.70;;;;;;;;;;10307064;28;20292;-64
2021/03/28 17:24:29;;;;;;;4.75;1.65;;;;;;;;;;10299895;28;20037;-64
2021/03/28 17:29:26;;;;;;;5.88;1.83;;;;;;;;;;10294945;28;20304;-64
2021/03/28 17:34:36;;;;;;;4.47;1.47;;;;;;;;;;10294000;28;20050;-63
2021/03/28 17:39:42;;;;;;;7.70;2.65;;;;;;;;;;10305396;28;20047;-65
2021/03/28 17:44:47;;;;;;;7.63;1.92;;;;;;;;;;10300136;28;21764;-62
2021/03/28 17:49:52;;;;;;;8.57;2.50;;;;;;;;;;10296412;28;20056;-65
2021/03/28 17:54:53;;;;;;;6.18;2.33;;;;;;;;;;10301403;28;20037;-64
2021/03/28 17:59:52;;;;;;;5.90;2.20;;;;;;;;;;10294160;28;20163;-63
2021/03/28 18:04:58;;;;;;;12.57;2.08;;;;;;;;;;10288707;28;20527;-64
2021/03/28 18:09:59;;;;;;;8.57;2.28;;;;;;;;;;10295044;28;20037;-64
2021/03/28 18:15:19;;;;;;;7.60;2.08;;;;;;;;;;10316670;28;20037;-64
2021/03/28 18:20:24;;;;;;;7.25;1.58;;;;;;;;;;10277372;28;20293;-62
2021/03/28 18:25:41;;;;;;;3.47;2.08;;;;;;;;;;10299301;28;20048;-64
2021/03/28 18:30:48;;;;;;;2.60;1.98;;;;;;;;;;10301714;28;20042;-65
2021/03/28 18:35:46;;;;;;;4.38;2.05;;;;;;;;;;10304826;28;20538;-65
2021/03/28 18:40:48;;;;;;;6.55;1.60;;;;;;;;;;10315776;28;20039;-66
2021/03/28 18:45:50;;;;;;;7.30;2.47;;;;;;;;;;10298474;28;20043;-65
2021/03/28 18:50:51;;;;;;;6.13;2.42;;;;;;;;;;10293440;28;20039;-65
2021/03/28 18:55:52;;;;;;;7.22;3.92;;;;;;;;;;10308035;28;20060;-64
2021/03/28 19:00:51;;;;;;;12.02;3.42;;;;;;;;;;10312233;28;20047;-65
2021/03/28 19:05:48;;;;;;;;;;;;;;;;;;10289341;28;20562;-65
2021/03/28 19:10:54;;;;;;;4.53;2.27;;;;;;;;;;10318530;28;19919;-65
2021/03/28 19:15:54;;;;;;;3.90;2.25;;;;;;;;;;10277219;28;20387;-65
2021/03/28 19:20:55;;;;;;;7.63;2.75;;;;;;;;;;10311247;28;20032;-65
2021/03/28 19:25:52;;;;;;;5.40;2.00;;;;;;;;;;10313226;28;20037;-65
2021/03/28 19:30:53;;;;;;;6.67;2.57;;;;;;;;;;10320793;28;20044;-65
2021/03/28 19:35:51;;;;;;;6.82;2.67;;;;;;;;;;10305265;28;20033;-66
2021/03/28 19:40:50;;;;;;;4.97;2.40;;;;;;;;;;10302538;28;20095;-65
2021/03/28 19:46:00;;;;;;;4.65;2.25;;;;;;;;;;10306673;28;20382;-66
2021/03/28 19:51:17;;;;;;;8.27;1.80;;;;;;;;;;10306968;28;20045;-63
2021/03/28 19:56:15;;;;;;;9.73;2.60;;;;;;;;;;10295232;28;20782;-64
2021/03/28 20:01:13;;;;;;;9.93;2.47;;;;;;;;;;10296480;28;20316;-64
2021/03/28 20:06:10;;;;;;;8.88;2.80;;;;;;;;;;10298041;28;20406;-63
2021/03/28 20:11:12;;;;;;;8.07;2.73;;;;;;;;;;10315921;28;20029;-65
2021/03/28 20:16:10;;;;;;;4.85;2.15;;;;;;;;;;10303122;28;20671;-64
2021/03/28 20:21:37;;;;;;;6.60;2.35;;;;;;;;;;10294810;28;20436;-63
2021/03/28 20:26:40;;;;;;;4.07;2.38;;;;;;;;;;10312490;28;20515;-65
2021/03/28 20:31:39;;;;;;;4.03;2.45;;;;;;;;;;10298910;28;20064;-64
2021/03/28 20:36:37;;;;;;;10.85;3.25;;;;;;;;;;10307312;28;20041;-63
2021/03/28 20:41:39;;;;;;;5.32;2.28;;;;;;;;;;10300353;28;20040;-65
2021/03/28 20:46:41;;;;;;;4.05;1.98;;;;;;;;;;10304070;28;20049;-63
2021/03/28 20:51:40;;;;;;;6.65;2.80;;;;;;;;;;10293789;28;20041;-64
2021/03/28 20:56:38;;;;;;;12.43;3.78;;;;;;;;;;10292363;28;20060;-65
2021/03/28 21:01:37;;;;;;;5.67;2.87;;;;;;;;;;10290013;28;20871;-64
2021/03/28 21:06:37;;;;;;;6.30;2.33;;;;;;;;;;10307410;28;20053;-64
2021/03/28 21:11:35;;;;;;;3.05;1.75;;;;;;;;;;10304641;28;20041;-64
2021/03/28 21:16:35;;;;;;;8.20;3.47;;;;;;;;;;10301759;28;20029;-64
2021/03/28 21:21:33;;;;;;;4.43;2.08;;;;;;;;;;10311811;28;20025;-65
2021/03/28 21:26:32;;;;;;;8.40;2.33;;;;;;;;;;10282261;28;20037;-63
2021/03/28 21:31:30;;;;;;;6.57;2.40;;;;;;;;;;10291731;28;20032;-63
2021/03/28 21:36:39;;;;;;;5.93;2.05;;;;;;;;;;10316916;28;20040;-65
2021/03/28 21:41:37;;;;;;;6.57;2.55;;;;;;;;;;10298017;28;20043;-64
2021/03/28 21:46:34;;;;;;;5.10;2.13;;;;;;;;;;10294035;28;20511;-64
2021/03/28 21:51:32;;;;;;;7.73;2.60;;;;;;;;;;10317450;28;20032;-64
2021/03/28 21:56:36;;;;;;;4.50;2.20;;;;;;;;;;10312113;28;20045;-65
2021/03/28 22:01:34;;;;;;;6.80;1.75;;;;;;;;;;10287250;28;20068;-64
2021/03/28 22:06:35;;;;;;;10.40;2.40;;;;;;;;;;10312798;28;20033;-65
2021/03/28 22:11:34;;;;;;;8.77;2.15;;;;;;;;;;10325626;28;20033;-64
2021/03/28 22:16:44;;;;;;;10.23;2.65;;;;;;;;;;10318701;28;20045;-65
2021/03/28 22:21:46;;;;;;;5.13;2.05;;;;;;;;;;10292801;28;20040;-65
2021/03/28 22:26:46;;;;;;;3.58;2.00;;;;;;;;;;10309706;28;20123;-64
2021/03/28 22:31:49;;;;;;;8.98;2.50;;;;;;;;;;10307702;28;20029;-68
2021/03/28 22:36:46;;;;;;;5.68;1.42;;;;;;;;;;10305533;28;20587;-65
2021/03/28 22:41:46;;;;;;;9.63;2.53;;;;;;;;;;10311807;28;20055;-64
2021/03/28 22:46:49;;;;;;;10.23;1.95;;;;;;;;;;10325068;28;20044;-66
2021/03/28 22:51:47;;;;;;;1.65;1.27;;;;;;;;;;10325526;28;22735;-65
2021/03/28 22:56:44;;;;;;;10.15;1.88;;;;;;;;;;10293479;28;20798;-66
2021/03/28 23:01:42;;;;;;;5.37;3.20;;;;;;;;;;10336721;28;20056;-64
2021/03/28 23:06:46;;;;;;;8.07;2.43;;;;;;;;;;10317488;28;20068;-65
2021/03/28 23:11:48;;;;;;;4.18;2.08;;;;;;;;;;10295600;28;20083;-65
2021/03/28 23:16:47;;;;;;;6.70;2.03;;;;;;;;;;10316805;28;20037;-66
2021/03/28 23:21:48;;;;;;;11.38;2.30;;;;;;;;;;10313000;28;20124;-65
2021/03/28 23:26:47;;;;;;;2.42;1.77;;;;;;;;;;10321029;28;20148;-65
2021/03/28 23:31:45;;;;;;;4.88;1.50;;;;;;;;;;10308997;28;20068;-65
2021/03/28 23:36:42;;;;;;;3.10;1.50;;;;;;;;;;10309776;28;20132;-64
2021/03/28 23:41:41;;;;;;;7.13;1.87;;;;;;;;;;10322389;28;20550;-65
2021/03/28 23:46:39;;;;;;;4.88;1.65;;;;;;;;;;10287012;28;20044;-63
2021/03/28 23:51:37;;;;;;;5.57;2.47;;;;;;;;;;10325256;28;20037;-63
2021/03/28 23:56:36;;;;;;;11.60;2.63;;;;;;;;;;10315993;28;20052;-64
